Terminal Aerodrome Forecast
Issued by NWS

Home | Current Version | Previous Version | Text Only | Print | Product List | Glossary On
Versions: 1 2 3 4 5 6 7 8 9 10 11 12
118
FTUS41 KLWX 222320
TAFMTN
TAF
KMTN 222320Z 2300/2324 30004KT P6SM BKN150
      AMD NOT SKED 2302/2312=

USA.gov is the U.S. government's official web portal to all federal, state and local government web resources and services.